sensor_id;sensor_type;location;lat;lon;timestamp;P1;durP1;ratioP1;P2;durP2;ratioP2
4517;SDS011;2271;49.464;11.070;2023-03-01T00:01:39;18.23;;;9.33;;
4517;SDS011;2271;49.464;11.070;2023-03-01T00:04:05;20.47;;;9.23;;
4517;SDS011;2271;49.464;11.070;2023-03-01T00:06:31;13.67;;;8.33;;
4517;SDS011;2271;49.464;11.070;2023-03-01T00:08:56;15.67;;;9.43;;
4517;SDS011;2271;49.464;11.070;2023-03-01T00:11:26;15.47;;;9.13;;
4517;SDS011;2271;49.464;11.070;2023-03-01T00:13:54;15.60;;;9.97;;
4517;SDS011;2271;49.464;11.070;2023-03-01T00:16:23;15.13;;;8.57;;
4517;SDS011;2271;49.464;11.070;2023-03-01T00:18:54;11.90;;;7.60;;
4517;SDS011;2271;49.464;11.070;2023-03-01T00:21:20;12.63;;;7.90;;
4517;SDS011;2271;49.464;11.070;2023-03-01T00:23:47;17.93;;;9.47;;
4517;SDS011;2271;49.464;11.070;2023-03-01T00:26:14;16.10;;;8.97;;
4517;SDS011;2271;49.464;11.070;2023-03-01T00:28:41;12.97;;;8.70;;
4517;SDS011;2271;49.464;11.070;2023-03-01T00:31:09;12.50;;;8.43;;
4517;SDS011;2271;49.464;11.070;2023-03-01T00:33:36;13.00;;;9.20;;
4517;SDS011;2271;49.464;11.070;2023-03-01T00:36:02;16.90;;;9.07;;
4517;SDS011;2271;49.464;11.070;2023-03-01T00:38:28;15.90;;;8.37;;
4517;SDS011;2271;49.464;11.070;2023-03-01T00:40:54;13.30;;;8.57;;
4517;SDS011;2271;49.464;11.070;2023-03-01T00:43:20;13.80;;;9.97;;
4517;SDS011;2271;49.464;11.070;2023-03-01T00:45:46;15.10;;;8.33;;
4517;SDS011;2271;49.464;11.070;2023-03-01T00:48:12;15.93;;;10.27;;
4517;SDS011;2271;49.464;11.070;2023-03-01T00:50:37;19.27;;;9.23;;
4517;SDS011;2271;49.464;11.070;2023-03-01T00:53:03;13.27;;;9.10;;
4517;SDS011;2271;49.464;11.070;2023-03-01T00:55:30;17.43;;;8.73;;
4517;SDS011;2271;49.464;11.070;2023-03-01T00:57:55;13.03;;;8.47;;
4517;SDS011;2271;49.464;11.070;2023-03-01T01:00:21;13.73;;;8.43;;
4517;SDS011;2271;49.464;11.070;2023-03-01T01:02:47;15.93;;;9.90;;
4517;SDS011;2271;49.464;11.070;2023-03-01T01:05:13;17.13;;;9.53;;
4517;SDS011;2271;49.464;11.070;2023-03-01T01:07:39;14.37;;;9.00;;
4517;SDS011;2271;49.464;11.070;2023-03-01T01:10:05;17.47;;;10.33;;
4517;SDS011;2271;49.464;11.070;2023-03-01T01:12:31;16.10;;;9.03;;
4517;SDS011;2271;49.464;11.070;2023-03-01T01:14:57;14.90;;;9.63;;
4517;SDS011;2271;49.464;11.070;2023-03-01T01:17:23;15.67;;;8.93;;
4517;SDS011;2271;49.464;11.070;2023-03-01T01:19:49;15.10;;;9.10;;
4517;SDS011;2271;49.464;11.070;2023-03-01T01:22:14;16.13;;;8.63;;
4517;SDS011;2271;49.464;11.070;2023-03-01T01:24:40;16.37;;;9.33;;
4517;SDS011;2271;49.464;11.070;2023-03-01T01:27:06;18.67;;;9.23;;
4517;SDS011;2271;49.464;11.070;2023-03-01T01:29:32;14.20;;;8.33;;
4517;SDS011;2271;49.464;11.070;2023-03-01T01:31:57;20.87;;;9.53;;
4517;SDS011;2271;49.464;11.070;2023-03-01T01:34:23;20.57;;;10.30;;
4517;SDS011;2271;49.464;11.070;2023-03-01T01:36:49;15.53;;;8.97;;
4517;SDS011;2271;49.464;11.070;2023-03-01T01:39:19;13.80;;;9.60;;
4517;SDS011;2271;49.464;11.070;2023-03-01T01:41:45;12.33;;;8.60;;
4517;SDS011;2271;49.464;11.070;2023-03-01T01:44:22;16.77;;;8.13;;
4517;SDS011;2271;49.464;11.070;2023-03-01T01:47:36;15.60;;;8.77;;
4517;SDS011;2271;49.464;11.070;2023-03-01T01:49:48;17.23;;;9.27;;
4517;SDS011;2271;49.464;11.070;2023-03-01T01:52:17;16.47;;;8.97;;
4517;SDS011;2271;49.464;11.070;2023-03-01T01:57:29;16.17;;;9.20;;
4517;SDS011;2271;49.464;11.070;2023-03-01T02:00:00;21.40;;;9.77;;
4517;SDS011;2271;49.464;11.070;2023-03-01T02:02:31;13.47;;;9.47;;
4517;SDS011;2271;49.464;11.070;2023-03-01T02:05:03;18.63;;;9.60;;
4517;SDS011;2271;49.464;11.070;2023-03-01T02:07:36;15.37;;;8.50;;
4517;SDS011;2271;49.464;11.070;2023-03-01T02:10:05;19.93;;;9.10;;
4517;SDS011;2271;49.464;11.070;2023-03-01T02:12:31;14.60;;;9.17;;
4517;SDS011;2271;49.464;11.070;2023-03-01T02:14:57;15.80;;;9.40;;
4517;SDS011;2271;49.464;11.070;2023-03-01T02:17:23;15.77;;;9.57;;
4517;SDS011;2271;49.464;11.070;2023-03-01T02:25:39;17.47;;;9.13;;
4517;SDS011;2271;49.464;11.070;2023-03-01T02:27:52;20.17;;;9.90;;
4517;SDS011;2271;49.464;11.070;2023-03-01T02:30:33;18.43;;;10.03;;
4517;SDS011;2271;49.464;11.070;2023-03-01T02:32:59;13.87;;;9.00;;
4517;SDS011;2271;49.464;11.070;2023-03-01T02:35:35;21.30;;;10.60;;
4517;SDS011;2271;49.464;11.070;2023-03-01T02:38:03;15.70;;;8.67;;
4517;SDS011;2271;49.464;11.070;2023-03-01T02:40:33;15.00;;;9.50;;
4517;SDS011;2271;49.464;11.070;2023-03-01T02:43:01;16.77;;;9.60;;
4517;SDS011;2271;49.464;11.070;2023-03-01T02:45:29;16.53;;;9.60;;
4517;SDS011;2271;49.464;11.070;2023-03-01T02:47:55;15.53;;;9.60;;
4517;SDS011;2271;49.464;11.070;2023-03-01T02:50:24;19.17;;;9.27;;
4517;SDS011;2271;49.464;11.070;2023-03-01T02:55:46;13.13;;;8.80;;
4517;SDS011;2271;49.464;11.070;2023-03-01T02:58:13;19.97;;;10.53;;
4517;SDS011;2271;49.464;11.070;2023-03-01T03:00:41;12.17;;;8.17;;
4517;SDS011;2271;49.464;11.070;2023-03-01T03:03:19;15.43;;;9.30;;
4517;SDS011;2271;49.464;11.070;2023-03-01T03:05:48;16.80;;;9.73;;
4517;SDS011;2271;49.464;11.070;2023-03-01T03:08:13;14.73;;;9.30;;
4517;SDS011;2271;49.464;11.070;2023-03-01T03:10:48;18.17;;;10.63;;
4517;SDS011;2271;49.464;11.070;2023-03-01T03:13:14;20.57;;;10.00;;
4517;SDS011;2271;49.464;11.070;2023-03-01T03:15:41;12.13;;;8.90;;
4517;SDS011;2271;49.464;11.070;2023-03-01T03:18:09;19.33;;;9.90;;
4517;SDS011;2271;49.464;11.070;2023-03-01T03:20:36;15.13;;;9.03;;
4517;SDS011;2271;49.464;11.070;2023-03-01T03:23:04;14.03;;;8.73;;
4517;SDS011;2271;49.464;11.070;2023-03-01T03:25:29;15.90;;;9.77;;
4517;SDS011;2271;49.464;11.070;2023-03-01T03:27:55;16.90;;;9.70;;
4517;SDS011;2271;49.464;11.070;2023-03-01T03:30:24;13.23;;;9.33;;
4517;SDS011;2271;49.464;11.070;2023-03-01T03:32:51;18.20;;;11.17;;
4517;SDS011;2271;49.464;11.070;2023-03-01T03:35:22;13.50;;;9.43;;
4517;SDS011;2271;49.464;11.070;2023-03-01T03:37:49;16.00;;;9.80;;
4517;SDS011;2271;49.464;11.070;2023-03-01T03:43:02;14.27;;;8.80;;
4517;SDS011;2271;49.464;11.070;2023-03-01T03:45:29;13.43;;;8.77;;
4517;SDS011;2271;49.464;11.070;2023-03-01T03:47:54;14.43;;;9.57;;
4517;SDS011;2271;49.464;11.070;2023-03-01T03:50:20;17.83;;;10.00;;
4517;SDS011;2271;49.464;11.070;2023-03-01T03:52:46;14.17;;;9.07;;
4517;SDS011;2271;49.464;11.070;2023-03-01T03:55:11;16.00;;;9.30;;
4517;SDS011;2271;49.464;11.070;2023-03-01T03:57:38;15.23;;;9.47;;
4517;SDS011;2271;49.464;11.070;2023-03-01T04:00:04;15.67;;;9.40;;
4517;SDS011;2271;49.464;11.070;2023-03-01T04:02:37;14.80;;;8.87;;
4517;SDS011;2271;49.464;11.070;2023-03-01T04:05:04;14.33;;;9.27;;
4517;SDS011;2271;49.464;11.070;2023-03-01T04:07:30;15.53;;;8.93;;
4517;SDS011;2271;49.464;11.070;2023-03-01T04:09:56;17.93;;;10.37;;
4517;SDS011;2271;49.464;11.070;2023-03-01T04:12:21;17.33;;;9.40;;
4517;SDS011;2271;49.464;11.070;2023-03-01T04:14:48;15.23;;;9.03;;
4517;SDS011;2271;49.464;11.070;2023-03-01T04:17:13;17.63;;;10.03;;
4517;SDS011;2271;49.464;11.070;2023-03-01T04:19:39;16.27;;;9.63;;
4517;SDS011;2271;49.464;11.070;2023-03-01T04:22:04;16.80;;;8.67;;
4517;SDS011;2271;49.464;11.070;2023-03-01T04:24:34;17.93;;;9.30;;
4517;SDS011;2271;49.464;11.070;2023-03-01T04:27:00;15.67;;;8.60;;
4517;SDS011;2271;49.464;11.070;2023-03-01T04:29:26;18.03;;;9.90;;
4517;SDS011;2271;49.464;11.070;2023-03-01T04:31:52;18.93;;;9.80;;
4517;SDS011;2271;49.464;11.070;2023-03-01T04:34:18;14.93;;;9.07;;
4517;SDS011;2271;49.464;11.070;2023-03-01T04:36:44;13.03;;;9.17;;
4517;SDS011;2271;49.464;11.070;2023-03-01T04:39:09;12.90;;;9.23;;
4517;SDS011;2271;49.464;11.070;2023-03-01T04:41:38;19.63;;;10.10;;
4517;SDS011;2271;49.464;11.070;2023-03-01T04:44:05;14.33;;;10.17;;
4517;SDS011;2271;49.464;11.070;2023-03-01T04:46:31;19.10;;;10.23;;
4517;SDS011;2271;49.464;11.070;2023-03-01T04:48:57;16.93;;;10.07;;
4517;SDS011;2271;49.464;11.070;2023-03-01T04:51:22;15.10;;;9.27;;
4517;SDS011;2271;49.464;11.070;2023-03-01T04:53:49;16.67;;;9.87;;
4517;SDS011;2271;49.464;11.070;2023-03-01T04:56:15;14.47;;;9.97;;
4517;SDS011;2271;49.464;11.070;2023-03-01T04:58:43;19.47;;;10.47;;
4517;SDS011;2271;49.464;11.070;2023-03-01T05:01:13;19.90;;;10.30;;
4517;SDS011;2271;49.464;11.070;2023-03-01T05:03:45;20.70;;;10.30;;
4517;SDS011;2271;49.464;11.070;2023-03-01T05:06:15;18.57;;;10.33;;
4517;SDS011;2271;49.464;11.070;2023-03-01T05:08:42;17.63;;;9.67;;
4517;SDS011;2271;49.464;11.070;2023-03-01T05:11:09;17.60;;;11.40;;
4517;SDS011;2271;49.464;11.070;2023-03-01T05:13:36;24.23;;;10.50;;
4517;SDS011;2271;49.464;11.070;2023-03-01T05:16:03;20.83;;;11.30;;
4517;SDS011;2271;49.464;11.070;2023-03-01T05:18:30;18.60;;;11.30;;
4517;SDS011;2271;49.464;11.070;2023-03-01T05:21:05;20.07;;;11.80;;
4517;SDS011;2271;49.464;11.070;2023-03-01T05:23:35;18.77;;;10.50;;
4517;SDS011;2271;49.464;11.070;2023-03-01T05:26:02;18.20;;;11.00;;
4517;SDS011;2271;49.464;11.070;2023-03-01T05:28:30;19.90;;;10.60;;
4517;SDS011;2271;49.464;11.070;2023-03-01T05:30:55;18.73;;;9.70;;
4517;SDS011;2271;49.464;11.070;2023-03-01T05:33:22;18.50;;;9.30;;
4517;SDS011;2271;49.464;11.070;2023-03-01T05:35:48;14.77;;;9.73;;
4517;SDS011;2271;49.464;11.070;2023-03-01T05:38:15;14.93;;;9.90;;
4517;SDS011;2271;49.464;11.070;2023-03-01T05:40:42;19.37;;;10.13;;
4517;SDS011;2271;49.464;11.070;2023-03-01T05:43:09;16.90;;;9.90;;
4517;SDS011;2271;49.464;11.070;2023-03-01T05:45:36;14.50;;;9.53;;
4517;SDS011;2271;49.464;11.070;2023-03-01T05:48:02;16.40;;;10.10;;
4517;SDS011;2271;49.464;11.070;2023-03-01T05:50:31;19.20;;;10.43;;
4517;SDS011;2271;49.464;11.070;2023-03-01T05:55:29;16.83;;;10.33;;
4517;SDS011;2271;49.464;11.070;2023-03-01T05:57:57;18.30;;;10.30;;
4517;SDS011;2271;49.464;11.070;2023-03-01T06:00:24;30.07;;;13.77;;
4517;SDS011;2271;49.464;11.070;2023-03-01T06:02:50;27.00;;;13.17;;
4517;SDS011;2271;49.464;11.070;2023-03-01T06:05:17;30.00;;;14.50;;
4517;SDS011;2271;49.464;11.070;2023-03-01T06:07:42;32.77;;;16.27;;
4517;SDS011;2271;49.464;11.070;2023-03-01T06:10:09;32.27;;;14.77;;
4517;SDS011;2271;49.464;11.070;2023-03-01T06:12:37;39.43;;;14.97;;
4517;SDS011;2271;49.464;11.070;2023-03-01T06:15:03;32.80;;;15.03;;
4517;SDS011;2271;49.464;11.070;2023-03-01T06:17:31;27.47;;;13.40;;
4517;SDS011;2271;49.464;11.070;2023-03-01T06:20:02;23.73;;;12.47;;
4517;SDS011;2271;49.464;11.070;2023-03-01T06:22:33;24.13;;;12.57;;
4517;SDS011;2271;49.464;11.070;2023-03-01T06:24:59;19.53;;;10.77;;
4517;SDS011;2271;49.464;11.070;2023-03-01T06:27:25;21.07;;;11.07;;
4517;SDS011;2271;49.464;11.070;2023-03-01T06:29:50;19.07;;;10.83;;
4517;SDS011;2271;49.464;11.070;2023-03-01T06:32:16;21.80;;;11.13;;
4517;SDS011;2271;49.464;11.070;2023-03-01T06:34:41;17.30;;;10.47;;
4517;SDS011;2271;49.464;11.070;2023-03-01T06:37:07;20.07;;;10.10;;
4517;SDS011;2271;49.464;11.070;2023-03-01T06:39:33;20.43;;;10.83;;
4517;SDS011;2271;49.464;11.070;2023-03-01T06:41:59;19.07;;;10.50;;
4517;SDS011;2271;49.464;11.070;2023-03-01T06:44:25;16.23;;;9.90;;
4517;SDS011;2271;49.464;11.070;2023-03-01T06:46:51;20.20;;;11.93;;
4517;SDS011;2271;49.464;11.070;2023-03-01T06:49:17;18.27;;;11.33;;
4517;SDS011;2271;49.464;11.070;2023-03-01T06:51:43;17.93;;;11.67;;
4517;SDS011;2271;49.464;11.070;2023-03-01T06:54:09;34.87;;;12.57;;
4517;SDS011;2271;49.464;11.070;2023-03-01T06:56:35;19.30;;;11.17;;
4517;SDS011;2271;49.464;11.070;2023-03-01T06:59:01;16.47;;;10.80;;
4517;SDS011;2271;49.464;11.070;2023-03-01T07:01:27;20.13;;;10.13;;
4517;SDS011;2271;49.464;11.070;2023-03-01T07:03:54;26.37;;;12.20;;
4517;SDS011;2271;49.464;11.070;2023-03-01T07:06:20;19.83;;;11.27;;
4517;SDS011;2271;49.464;11.070;2023-03-01T07:08:45;15.67;;;10.10;;
4517;SDS011;2271;49.464;11.070;2023-03-01T07:11:11;22.70;;;10.60;;
4517;SDS011;2271;49.464;11.070;2023-03-01T07:13:37;21.30;;;11.20;;
4517;SDS011;2271;49.464;11.070;2023-03-01T07:16:03;21.00;;;12.00;;
4517;SDS011;2271;49.464;11.070;2023-03-01T07:18:29;15.80;;;10.43;;
4517;SDS011;2271;49.464;11.070;2023-03-01T07:20:54;15.83;;;11.13;;
4517;SDS011;2271;49.464;11.070;2023-03-01T07:23:20;22.47;;;11.43;;
4517;SDS011;2271;49.464;11.070;2023-03-01T07:25:52;19.07;;;11.60;;
4517;SDS011;2271;49.464;11.070;2023-03-01T07:28:18;20.07;;;11.33;;
4517;SDS011;2271;49.464;11.070;2023-03-01T07:30:44;20.00;;;11.07;;
4517;SDS011;2271;49.464;11.070;2023-03-01T07:33:10;23.03;;;10.53;;
4517;SDS011;2271;49.464;11.070;2023-03-01T07:35:35;17.70;;;11.17;;
4517;SDS011;2271;49.464;11.070;2023-03-01T07:38:01;18.93;;;10.93;;
4517;SDS011;2271;49.464;11.070;2023-03-01T07:40:27;25.10;;;10.90;;
4517;SDS011;2271;49.464;11.070;2023-03-01T07:42:56;21.77;;;11.17;;
4517;SDS011;2271;49.464;11.070;2023-03-01T07:45:22;17.07;;;11.40;;
4517;SDS011;2271;49.464;11.070;2023-03-01T07:47:49;21.87;;;11.40;;
4517;SDS011;2271;49.464;11.070;2023-03-01T07:50:18;19.60;;;11.97;;
4517;SDS011;2271;49.464;11.070;2023-03-01T07:52:45;22.70;;;10.43;;
4517;SDS011;2271;49.464;11.070;2023-03-01T07:55:11;20.30;;;10.43;;
4517;SDS011;2271;49.464;11.070;2023-03-01T07:57:37;23.50;;;10.73;;
4517;SDS011;2271;49.464;11.070;2023-03-01T08:00:03;16.33;;;11.00;;
4517;SDS011;2271;49.464;11.070;2023-03-01T08:02:29;19.67;;;11.10;;
4517;SDS011;2271;49.464;11.070;2023-03-01T08:04:55;17.13;;;11.90;;
4517;SDS011;2271;49.464;11.070;2023-03-01T08:07:21;19.30;;;11.60;;
4517;SDS011;2271;49.464;11.070;2023-03-01T08:09:46;19.03;;;11.10;;
4517;SDS011;2271;49.464;11.070;2023-03-01T08:12:12;22.03;;;11.63;;
4517;SDS011;2271;49.464;11.070;2023-03-01T08:14:38;18.83;;;10.80;;
4517;SDS011;2271;49.464;11.070;2023-03-01T08:17:03;14.27;;;9.93;;
4517;SDS011;2271;49.464;11.070;2023-03-01T08:19:29;18.37;;;11.23;;
4517;SDS011;2271;49.464;11.070;2023-03-01T08:21:55;19.47;;;11.33;;
4517;SDS011;2271;49.464;11.070;2023-03-01T08:24:23;20.97;;;11.83;;
4517;SDS011;2271;49.464;11.070;2023-03-01T08:26:49;23.40;;;11.70;;
4517;SDS011;2271;49.464;11.070;2023-03-01T08:29:14;20.10;;;11.17;;
4517;SDS011;2271;49.464;11.070;2023-03-01T08:31:40;16.97;;;10.53;;
4517;SDS011;2271;49.464;11.070;2023-03-01T08:34:10;16.33;;;9.83;;
4517;SDS011;2271;49.464;11.070;2023-03-01T08:36:39;23.57;;;10.77;;
4517;SDS011;2271;49.464;11.070;2023-03-01T08:39:08;18.27;;;11.37;;
4517;SDS011;2271;49.464;11.070;2023-03-01T08:41:34;19.07;;;10.47;;
4517;SDS011;2271;49.464;11.070;2023-03-01T08:44:00;21.83;;;12.00;;
4517;SDS011;2271;49.464;11.070;2023-03-01T08:46:29;20.20;;;11.33;;
4517;SDS011;2271;49.464;11.070;2023-03-01T08:48:57;23.43;;;11.40;;
4517;SDS011;2271;49.464;11.070;2023-03-01T08:51:22;21.27;;;12.53;;
4517;SDS011;2271;49.464;11.070;2023-03-01T08:53:49;18.37;;;11.00;;
4517;SDS011;2271;49.464;11.070;2023-03-01T08:56:15;23.10;;;10.97;;
4517;SDS011;2271;49.464;11.070;2023-03-01T08:58:47;21.50;;;11.43;;
4517;SDS011;2271;49.464;11.070;2023-03-01T09:01:17;20.87;;;11.10;;
4517;SDS011;2271;49.464;11.070;2023-03-01T09:03:44;17.23;;;10.87;;
4517;SDS011;2271;49.464;11.070;2023-03-01T09:06:10;24.73;;;10.90;;
4517;SDS011;2271;49.464;11.070;2023-03-01T09:08:40;17.23;;;10.53;;
4517;SDS011;2271;49.464;11.070;2023-03-01T09:11:08;17.23;;;10.70;;
4517;SDS011;2271;49.464;11.070;2023-03-01T09:13:35;18.57;;;11.33;;
4517;SDS011;2271;49.464;11.070;2023-03-01T09:16:02;18.90;;;11.13;;
4517;SDS011;2271;49.464;11.070;2023-03-01T09:18:29;19.60;;;11.30;;
4517;SDS011;2271;49.464;11.070;2023-03-01T09:23:37;18.83;;;10.93;;
4517;SDS011;2271;49.464;11.070;2023-03-01T09:26:05;22.60;;;12.63;;
4517;SDS011;2271;49.464;11.070;2023-03-01T09:28:33;20.80;;;10.27;;
4517;SDS011;2271;49.464;11.070;2023-03-01T09:30:59;20.27;;;11.03;;
4517;SDS011;2271;49.464;11.070;2023-03-01T09:33:27;18.83;;;11.27;;
4517;SDS011;2271;49.464;11.070;2023-03-01T09:36:00;20.80;;;11.50;;
4517;SDS011;2271;49.464;11.070;2023-03-01T09:38:28;16.77;;;10.80;;
4517;SDS011;2271;49.464;11.070;2023-03-01T09:40:55;16.77;;;11.50;;
4517;SDS011;2271;49.464;11.070;2023-03-01T09:43:40;16.43;;;10.50;;
4517;SDS011;2271;49.464;11.070;2023-03-01T09:46:11;23.07;;;12.10;;
4517;SDS011;2271;49.464;11.070;2023-03-01T09:48:42;18.63;;;11.30;;
4517;SDS011;2271;49.464;11.070;2023-03-01T09:51:16;17.97;;;11.10;;
4517;SDS011;2271;49.464;11.070;2023-03-01T09:53:44;23.67;;;10.80;;
4517;SDS011;2271;49.464;11.070;2023-03-01T09:56:16;17.40;;;10.33;;
4517;SDS011;2271;49.464;11.070;2023-03-01T09:58:54;20.97;;;11.63;;
4517;SDS011;2271;49.464;11.070;2023-03-01T10:04:46;17.97;;;10.20;;
4517;SDS011;2271;49.464;11.070;2023-03-01T10:07:05;17.23;;;9.83;;
4517;SDS011;2271;49.464;11.070;2023-03-01T10:09:36;16.63;;;10.57;;
4517;SDS011;2271;49.464;11.070;2023-03-01T10:12:08;20.57;;;11.80;;
4517;SDS011;2271;49.464;11.070;2023-03-01T10:14:58;25.07;;;12.80;;
4517;SDS011;2271;49.464;11.070;2023-03-01T10:21:05;17.03;;;10.47;;
4517;SDS011;2271;49.464;11.070;2023-03-01T10:23:15;18.40;;;10.97;;
4517;SDS011;2271;49.464;11.070;2023-03-01T10:25:44;20.50;;;11.90;;
4517;SDS011;2271;49.464;11.070;2023-03-01T10:31:29;16.73;;;10.20;;
4517;SDS011;2271;49.464;11.070;2023-03-01T10:34:09;19.43;;;11.40;;
4517;SDS011;2271;49.464;11.070;2023-03-01T10:36:36;18.03;;;11.33;;
4517;SDS011;2271;49.464;11.070;2023-03-01T10:39:11;17.30;;;10.20;;
4517;SDS011;2271;49.464;11.070;2023-03-01T10:47:08;19.63;;;10.77;;
4517;SDS011;2271;49.464;11.070;2023-03-01T10:49:57;17.50;;;10.67;;
4517;SDS011;2271;49.464;11.070;2023-03-01T10:52:42;21.13;;;12.60;;
4517;SDS011;2271;49.464;11.070;2023-03-01T10:58:33;17.03;;;11.33;;
4517;SDS011;2271;49.464;11.070;2023-03-01T11:00:59;33.80;;;12.47;;
4517;SDS011;2271;49.464;11.070;2023-03-01T11:03:37;20.07;;;11.33;;
4517;SDS011;2271;49.464;11.070;2023-03-01T11:08:32;17.80;;;11.23;;
4517;SDS011;2271;49.464;11.070;2023-03-01T11:16:26;20.10;;;10.17;;
4517;SDS011;2271;49.464;11.070;2023-03-01T11:24:15;21.73;;;11.43;;
4517;SDS011;2271;49.464;11.070;2023-03-01T11:26:45;18.83;;;10.83;;
4517;SDS011;2271;49.464;11.070;2023-03-01T11:29:27;16.43;;;9.73;;
4517;SDS011;2271;49.464;11.070;2023-03-01T11:32:00;15.87;;;10.40;;
4517;SDS011;2271;49.464;11.070;2023-03-01T11:34:36;19.20;;;11.13;;
4517;SDS011;2271;49.464;11.070;2023-03-01T11:37:26;21.87;;;11.50;;
4517;SDS011;2271;49.464;11.070;2023-03-01T11:40:10;14.30;;;8.93;;
4517;SDS011;2271;49.464;11.070;2023-03-01T11:45:47;16.07;;;10.03;;
4517;SDS011;2271;49.464;11.070;2023-03-01T11:48:55;21.97;;;10.90;;
4517;SDS011;2271;49.464;11.070;2023-03-01T11:57:06;14.27;;;9.40;;
4517;SDS011;2271;49.464;11.070;2023-03-01T11:59:51;15.73;;;9.80;;
4517;SDS011;2271;49.464;11.070;2023-03-01T12:02:45;14.83;;;10.33;;
4517;SDS011;2271;49.464;11.070;2023-03-01T12:08:16;20.03;;;10.83;;
4517;SDS011;2271;49.464;11.070;2023-03-01T12:15:57;17.37;;;10.70;;
4517;SDS011;2271;49.464;11.070;2023-03-01T12:32:45;15.30;;;9.40;;
4517;SDS011;2271;49.464;11.070;2023-03-01T12:38:42;17.90;;;10.40;;
4517;SDS011;2271;49.464;11.070;2023-03-01T12:49:53;15.33;;;8.60;;
4517;SDS011;2271;49.464;11.070;2023-03-01T12:52:33;12.77;;;8.70;;
4517;SDS011;2271;49.464;11.070;2023-03-01T12:55:06;14.73;;;8.83;;
4517;SDS011;2271;49.464;11.070;2023-03-01T12:57:41;17.33;;;9.50;;
4517;SDS011;2271;49.464;11.070;2023-03-01T13:00:28;16.57;;;9.73;;
4517;SDS011;2271;49.464;11.070;2023-03-01T13:03:00;15.40;;;9.20;;
4517;SDS011;2271;49.464;11.070;2023-03-01T13:05:39;15.90;;;9.50;;
4517;SDS011;2271;49.464;11.070;2023-03-01T13:11:04;14.93;;;9.30;;
4517;SDS011;2271;49.464;11.070;2023-03-01T13:13:35;13.13;;;8.90;;
4517;SDS011;2271;49.464;11.070;2023-03-01T13:16:46;10.70;;;7.73;;
4517;SDS011;2271;49.464;11.070;2023-03-01T13:18:47;16.40;;;8.70;;
4517;SDS011;2271;49.464;11.070;2023-03-01T13:21:13;11.33;;;7.43;;
4517;SDS011;2271;49.464;11.070;2023-03-01T13:23:55;12.30;;;8.60;;
4517;SDS011;2271;49.464;11.070;2023-03-01T13:26:21;16.50;;;8.93;;
4517;SDS011;2271;49.464;11.070;2023-03-01T13:28:48;15.67;;;9.10;;
4517;SDS011;2271;49.464;11.070;2023-03-01T13:33:50;11.53;;;8.10;;
4517;SDS011;2271;49.464;11.070;2023-03-01T13:37:02;16.37;;;9.30;;
4517;SDS011;2271;49.464;11.070;2023-03-01T13:39:29;16.10;;;9.57;;
4517;SDS011;2271;49.464;11.070;2023-03-01T13:41:57;14.37;;;7.73;;
4517;SDS011;2271;49.464;11.070;2023-03-01T13:44:37;13.87;;;8.60;;
4517;SDS011;2271;49.464;11.070;2023-03-01T13:54:56;14.20;;;9.10;;
4517;SDS011;2271;49.464;11.070;2023-03-01T13:57:25;13.27;;;8.47;;
4517;SDS011;2271;49.464;11.070;2023-03-01T13:59:54;12.40;;;8.33;;
4517;SDS011;2271;49.464;11.070;2023-03-01T14:02:20;15.30;;;8.53;;
4517;SDS011;2271;49.464;11.070;2023-03-01T14:04:55;16.97;;;8.90;;
4517;SDS011;2271;49.464;11.070;2023-03-01T14:07:23;15.30;;;8.80;;
4517;SDS011;2271;49.464;11.070;2023-03-01T14:09:52;12.17;;;8.03;;
4517;SDS011;2271;49.464;11.070;2023-03-01T14:18:58;13.87;;;8.37;;
4517;SDS011;2271;49.464;11.070;2023-03-01T14:20:54;15.30;;;8.77;;
4517;SDS011;2271;49.464;11.070;2023-03-01T14:23:21;24.87;;;9.03;;
4517;SDS011;2271;49.464;11.070;2023-03-01T14:25:52;12.13;;;8.17;;
4517;SDS011;2271;49.464;11.070;2023-03-01T14:30:56;12.73;;;9.07;;
4517;SDS011;2271;49.464;11.070;2023-03-01T14:33:25;16.63;;;8.60;;
4517;SDS011;2271;49.464;11.070;2023-03-01T14:36:01;12.80;;;8.93;;
4517;SDS011;2271;49.464;11.070;2023-03-01T14:38:32;13.27;;;9.03;;
4517;SDS011;2271;49.464;11.070;2023-03-01T14:41:13;14.03;;;9.03;;
4517;SDS011;2271;49.464;11.070;2023-03-01T14:43:43;12.40;;;7.93;;
4517;SDS011;2271;49.464;11.070;2023-03-01T14:46:25;16.17;;;9.80;;
4517;SDS011;2271;49.464;11.070;2023-03-01T14:49:05;14.80;;;9.60;;
4517;SDS011;2271;49.464;11.070;2023-03-01T14:51:36;17.07;;;9.50;;
4517;SDS011;2271;49.464;11.070;2023-03-01T14:54:49;14.63;;;8.83;;
4517;SDS011;2271;49.464;11.070;2023-03-01T14:57:12;13.33;;;8.53;;
4517;SDS011;2271;49.464;11.070;2023-03-01T14:59:40;14.07;;;9.17;;
4517;SDS011;2271;49.464;11.070;2023-03-01T15:02:12;15.70;;;8.40;;
4517;SDS011;2271;49.464;11.070;2023-03-01T15:04:48;16.93;;;9.50;;
4517;SDS011;2271;49.464;11.070;2023-03-01T15:07:16;13.00;;;7.97;;
4517;SDS011;2271;49.464;11.070;2023-03-01T15:09:43;15.57;;;8.67;;
4517;SDS011;2271;49.464;11.070;2023-03-01T15:14:54;10.67;;;8.00;;
4517;SDS011;2271;49.464;11.070;2023-03-01T15:20:07;11.60;;;8.13;;
4517;SDS011;2271;49.464;11.070;2023-03-01T15:22:45;14.90;;;9.00;;
4517;SDS011;2271;49.464;11.070;2023-03-01T15:25:14;12.97;;;8.83;;
4517;SDS011;2271;49.464;11.070;2023-03-01T15:27:45;17.83;;;9.33;;
4517;SDS011;2271;49.464;11.070;2023-03-01T15:32:44;14.13;;;7.93;;
4517;SDS011;2271;49.464;11.070;2023-03-01T15:40:57;15.30;;;8.07;;
4517;SDS011;2271;49.464;11.070;2023-03-01T15:43:41;11.17;;;7.70;;
4517;SDS011;2271;49.464;11.070;2023-03-01T15:46:22;11.93;;;7.30;;
4517;SDS011;2271;49.464;11.070;2023-03-01T15:48:52;16.17;;;7.97;;
4517;SDS011;2271;49.464;11.070;2023-03-01T15:54:19;13.83;;;7.50;;
4517;SDS011;2271;49.464;11.070;2023-03-01T15:56:47;13.93;;;7.80;;
4517;SDS011;2271;49.464;11.070;2023-03-01T15:59:13;14.53;;;7.53;;
4517;SDS011;2271;49.464;11.070;2023-03-01T16:01:39;13.43;;;7.40;;
4517;SDS011;2271;49.464;11.070;2023-03-01T16:04:05;26.17;;;9.00;;
4517;SDS011;2271;49.464;11.070;2023-03-01T16:06:31;21.50;;;8.40;;
4517;SDS011;2271;49.464;11.070;2023-03-01T16:08:56;12.77;;;7.63;;
4517;SDS011;2271;49.464;11.070;2023-03-01T16:11:22;11.33;;;7.50;;
4517;SDS011;2271;49.464;11.070;2023-03-01T16:13:48;12.10;;;8.10;;
4517;SDS011;2271;49.464;11.070;2023-03-01T16:16:14;12.47;;;8.23;;
4517;SDS011;2271;49.464;11.070;2023-03-01T16:18:45;16.50;;;8.00;;
4517;SDS011;2271;49.464;11.070;2023-03-01T16:21:12;15.07;;;8.33;;
4517;SDS011;2271;49.464;11.070;2023-03-01T16:23:41;10.03;;;7.03;;
4517;SDS011;2271;49.464;11.070;2023-03-01T16:26:08;14.60;;;8.97;;
4517;SDS011;2271;49.464;11.070;2023-03-01T16:28:34;13.80;;;9.07;;
4517;SDS011;2271;49.464;11.070;2023-03-01T16:31:00;10.80;;;7.93;;
4517;SDS011;2271;49.464;11.070;2023-03-01T16:33:26;14.47;;;8.80;;
4517;SDS011;2271;49.464;11.070;2023-03-01T16:35:52;13.53;;;8.23;;
4517;SDS011;2271;49.464;11.070;2023-03-01T16:38:18;14.73;;;8.67;;
4517;SDS011;2271;49.464;11.070;2023-03-01T16:40:46;17.10;;;8.50;;
4517;SDS011;2271;49.464;11.070;2023-03-01T16:43:13;11.80;;;7.53;;
4517;SDS011;2271;49.464;11.070;2023-03-01T16:45:39;14.33;;;7.80;;
4517;SDS011;2271;49.464;11.070;2023-03-01T16:48:05;14.27;;;8.10;;
4517;SDS011;2271;49.464;11.070;2023-03-01T16:50:31;14.30;;;9.70;;
4517;SDS011;2271;49.464;11.070;2023-03-01T16:52:57;14.37;;;9.30;;
4517;SDS011;2271;49.464;11.070;2023-03-01T16:55:22;15.50;;;8.43;;
4517;SDS011;2271;49.464;11.070;2023-03-01T16:57:48;12.90;;;8.77;;
4517;SDS011;2271;49.464;11.070;2023-03-01T17:00:14;15.17;;;8.33;;
4517;SDS011;2271;49.464;11.070;2023-03-01T17:02:40;16.77;;;8.20;;
4517;SDS011;2271;49.464;11.070;2023-03-01T17:05:07;11.90;;;7.30;;
4517;SDS011;2271;49.464;11.070;2023-03-01T17:07:34;15.50;;;8.30;;